Terminal Aerodrome Forecast
Issued by NWS

Home | Current Version | Previous Version | Text Only | Print | Product List | Glossary On
Versions: 1 2 3 4 5 6 7 8 9 10 11 12 13 14 15
022
FTUS43 KPAH 242032 AAA
TAFCGI
TAF AMD
KCGI 242032Z 2421/2518 21010KT P6SM SCT045 BKN200
     FM242200 19009KT P6SM -SHRA VCTS SCT030CB BKN100
      TEMPO 2422/2501 5SM -TSRA BR BKN025CB
     FM250100 17005KT P6SM SCT050 BKN120=

USA.gov is the U.S. government's official web portal to all federal, state and local government web resources and services.